createdAt,value
2018-10-01T00:00:50.710Z,9.73
2018-10-01T00:03:18.485Z,9.27
2018-10-01T00:05:46.148Z,14.03
2018-10-01T00:08:19.466Z,10.40
2018-10-01T00:10:47.173Z,8.13
2018-10-01T00:13:14.760Z,12.53
2018-10-01T00:15:42.405Z,12.23
2018-10-01T00:18:16.927Z,13.60
2018-10-01T00:23:43.910Z,12.33
2018-10-01T00:26:18.835Z,13.33
2018-10-01T00:28:47.757Z,8.30
2018-10-01T00:31:25.203Z,13.03
2018-10-01T00:40:34.034Z,12.10
2018-10-01T00:43:10.730Z,9.90
2018-10-01T00:45:54.779Z,14.57
2018-10-01T00:48:46.593Z,8.40
2018-10-01T00:51:19.501Z,8.67
2018-10-01T00:53:47.281Z,8.37
2018-10-01T00:56:14.914Z,10.60
2018-10-01T00:58:46.903Z,11.23
2018-10-01T01:01:17.105Z,11.33
2018-10-01T01:03:48.075Z,8.03
2018-10-01T01:06:16.585Z,12.47
2018-10-01T01:08:44.318Z,11.33
2018-10-01T01:11:11.952Z,11.60
2018-10-01T01:13:39.724Z,10.37
2018-10-01T01:16:07.489Z,9.37
2018-10-01T01:18:49.542Z,9.70
2018-10-01T01:21:17.192Z,13.37
2018-10-01T01:23:45.049Z,10.17
2018-10-01T01:26:12.674Z,9.67
2018-10-01T01:28:40.258Z,13.37
2018-10-01T01:31:07.855Z,10.57
2018-10-01T01:33:35.558Z,14.13
2018-10-01T01:36:03.177Z,13.40
2018-10-01T01:38:30.875Z,16.93
2018-10-01T01:41:01.139Z,14.60
2018-10-01T01:43:28.752Z,14.30
2018-10-01T01:45:56.507Z,14.50
2018-10-01T01:48:24.142Z,12.53
2018-10-01T01:50:51.782Z,13.70
2018-10-01T01:53:19.336Z,13.87
2018-10-01T01:55:46.922Z,11.20
2018-10-01T01:58:16.608Z,11.13
2018-10-01T02:00:44.257Z,13.33
2018-10-01T02:03:11.878Z,15.60
2018-10-01T02:05:39.465Z,10.43
2018-10-01T02:08:28.271Z,14.60
2018-10-01T02:10:57.014Z,13.83
2018-10-01T02:13:24.670Z,10.70
2018-10-01T02:15:52.529Z,13.27
2018-10-01T02:21:13.417Z,10.93
2018-10-01T02:23:41.177Z,14.53
2018-10-01T02:26:08.840Z,17.70
2018-10-01T02:28:36.430Z,12.90
2018-10-01T02:31:04.212Z,11.33
2018-10-01T02:33:31.817Z,13.63
2018-10-01T02:35:59.492Z,10.20
2018-10-01T02:38:27.081Z,16.90
2018-10-01T02:40:54.849Z,10.67
2018-10-01T02:43:22.496Z,15.63
2018-10-01T02:45:50.161Z,12.17
2018-10-01T02:48:17.943Z,9.47
2018-10-01T02:50:45.612Z,8.43
2018-10-01T02:53:18.881Z,6.97
2018-10-01T02:55:46.490Z,12.10
2018-10-01T02:58:14.024Z,8.03
2018-10-01T03:00:41.619Z,9.60
2018-10-01T03:03:09.317Z,11.17
2018-10-01T03:05:37.024Z,10.20
2018-10-01T03:08:05.637Z,13.90
2018-10-01T03:10:33.342Z,13.67
2018-10-01T03:13:01.007Z,10.27
2018-10-01T03:15:29.512Z,8.13
2018-10-01T03:17:57.122Z,9.00
2018-10-01T03:20:24.866Z,11.83
2018-10-01T03:22:52.548Z,7.23
2018-10-01T03:25:20.196Z,15.27
2018-10-01T03:27:47.838Z,9.27
2018-10-01T03:30:15.457Z,11.30
2018-10-01T03:32:43.050Z,10.27
2018-10-01T03:35:10.779Z,8.70
2018-10-01T03:37:38.629Z,7.30
2018-10-01T03:40:06.339Z,8.97
2018-10-01T03:42:34.071Z,8.37
2018-10-01T03:45:01.713Z,7.43
2018-10-01T03:47:29.345Z,8.63
2018-10-01T03:49:56.957Z,8.57
2018-10-01T03:52:24.610Z,10.33
2018-10-01T03:54:52.255Z,11.17
2018-10-01T03:57:19.949Z,10.47
2018-10-01T03:59:47.533Z,10.10
2018-10-01T04:02:17.022Z,6.80
2018-10-01T04:04:44.846Z,10.90
2018-10-01T04:07:12.480Z,11.37
2018-10-01T04:09:40.040Z,6.07
2018-10-01T04:12:07.633Z,9.83
2018-10-01T04:14:35.265Z,12.30
2018-10-01T04:17:03.003Z,8.83
2018-10-01T04:19:30.701Z,5.63
2018-10-01T04:21:58.530Z,7.13
2018-10-01T04:24:26.180Z,6.77
2018-10-01T04:26:56.242Z,11.60
2018-10-01T04:29:23.908Z,10.37
2018-10-01T04:31:51.497Z,10.53
2018-10-01T04:34:19.052Z,5.43
2018-10-01T04:36:46.661Z,10.93
2018-10-01T04:39:14.421Z,14.00
2018-10-01T04:41:42.221Z,9.13
2018-10-01T04:44:10.305Z,10.10
2018-10-01T04:46:38.907Z,10.13
2018-10-01T04:49:07.353Z,11.23
2018-10-01T04:51:35.040Z,9.63
2018-10-01T04:54:02.701Z,12.53
2018-10-01T04:56:30.293Z,7.37
2018-10-01T04:58:58.059Z,7.70
2018-10-01T05:01:25.730Z,8.33
2018-10-01T05:03:53.434Z,6.23
2018-10-01T05:06:21.054Z,13.53
2018-10-01T05:08:48.754Z,8.87
2018-10-01T05:11:16.380Z,7.90
2018-10-01T05:13:44.160Z,8.40
2018-10-01T05:16:11.903Z,6.53
2018-10-01T05:18:39.494Z,9.43
2018-10-01T05:21:07.272Z,7.37
2018-10-01T05:23:34.945Z,9.83
2018-10-01T05:26:02.508Z,6.83
2018-10-01T05:28:30.129Z,10.70
2018-10-01T05:30:58.213Z,8.87
2018-10-01T05:33:26.585Z,8.57
2018-10-01T05:35:54.241Z,11.53
2018-10-01T05:38:22.028Z,10.30
2018-10-01T05:40:49.667Z,10.07
2018-10-01T05:43:17.274Z,8.90
2018-10-01T05:45:44.905Z,7.50
2018-10-01T05:48:12.466Z,10.10
2018-10-01T05:50:40.072Z,5.90
2018-10-01T05:53:07.703Z,7.77
2018-10-01T05:55:35.296Z,7.00
2018-10-01T05:58:03.051Z,8.23
2018-10-01T06:00:30.666Z,8.70
2018-10-01T06:02:58.473Z,5.20
2018-10-01T06:05:26.188Z,6.43
2018-10-01T06:07:53.941Z,11.67
2018-10-01T06:10:21.926Z,6.10
2018-10-01T06:12:50.609Z,6.60
2018-10-01T06:15:18.252Z,6.47
2018-10-01T06:17:45.978Z,12.40
2018-10-01T06:20:13.788Z,7.77
2018-10-01T06:22:41.545Z,6.63
2018-10-01T06:25:09.237Z,4.97
2018-10-01T06:27:37.422Z,6.50
2018-10-01T06:30:05.122Z,7.90
2018-10-01T06:32:33.730Z,8.40
2018-10-01T06:35:01.313Z,7.07
2018-10-01T06:37:28.950Z,5.23
2018-10-01T06:39:56.566Z,8.10
2018-10-01T06:42:24.196Z,8.87
2018-10-01T06:44:51.792Z,9.10
2018-10-01T06:47:19.413Z,8.30
2018-10-01T06:49:47.049Z,6.27
2018-10-01T06:52:14.677Z,6.37
2018-10-01T06:54:42.330Z,6.93
2018-10-01T06:57:09.949Z,7.67
2018-10-01T06:59:37.596Z,8.83
2018-10-01T07:02:05.238Z,5.23
2018-10-01T07:04:32.844Z,6.47
2018-10-01T07:07:00.499Z,4.83
2018-10-01T07:09:28.096Z,9.00
2018-10-01T07:11:55.800Z,8.83
2018-10-01T07:14:23.890Z,6.07
2018-10-01T07:16:51.604Z,6.63
2018-10-01T07:19:19.165Z,4.17
2018-10-01T07:21:46.834Z,4.03
2018-10-01T07:24:14.517Z,6.40
2018-10-01T07:26:42.158Z,5.20
2018-10-01T07:29:09.750Z,4.77
2018-10-01T07:31:37.365Z,2.73
2018-10-01T07:34:04.966Z,6.40
2018-10-01T07:36:32.630Z,6.10
2018-10-01T07:39:00.231Z,6.00
2018-10-01T07:41:27.801Z,4.70
2018-10-01T07:43:55.410Z,4.20
2018-10-01T07:46:23.090Z,5.67
2018-10-01T07:48:50.624Z,3.40
2018-10-01T07:51:18.265Z,4.47
2018-10-01T07:53:45.938Z,5.27
2018-10-01T07:56:13.570Z,2.63
2018-10-01T07:58:41.168Z,3.70
2018-10-01T08:01:08.793Z,3.10
2018-10-01T08:03:36.406Z,5.13
2018-10-01T08:06:03.996Z,4.07
2018-10-01T08:08:31.648Z,2.17
2018-10-01T08:10:59.286Z,4.80
2018-10-01T08:13:26.929Z,4.97
2018-10-01T08:15:54.620Z,4.90
2018-10-01T08:18:22.274Z,7.13
2018-10-01T08:20:49.886Z,3.50
2018-10-01T08:23:20.276Z,7.73
2018-10-01T08:25:47.924Z,5.60
2018-10-01T08:28:15.516Z,4.00
2018-10-01T08:30:43.138Z,4.83
2018-10-01T08:33:10.811Z,5.70
2018-10-01T08:35:38.459Z,3.67
2018-10-01T08:38:06.224Z,5.40
2018-10-01T08:40:40.393Z,3.23
2018-10-01T08:43:08.039Z,2.87
2018-10-01T08:45:35.767Z,2.45
2018-10-01T08:48:03.449Z,2.90
2018-10-01T08:50:38.951Z,3.22
2018-10-01T08:53:17.588Z,5.55
2018-10-01T08:55:48.589Z,4.35
2018-10-01T08:58:16.953Z,2.17
2018-10-01T09:00:44.541Z,3.00
2018-10-01T09:03:12.236Z,2.90
2018-10-01T09:05:39.841Z,4.05
2018-10-01T09:08:07.479Z,5.10
2018-10-01T09:10:35.097Z,5.17
2018-10-01T09:13:02.704Z,3.10
2018-10-01T09:15:30.313Z,2.35
2018-10-01T09:17:58.007Z,3.93
2018-10-01T09:20:25.780Z,5.03
2018-10-01T09:22:53.437Z,6.60
2018-10-01T09:25:21.082Z,2.60
2018-10-01T09:27:48.716Z,3.67
2018-10-01T09:30:16.326Z,7.00
2018-10-01T09:32:44.008Z,8.70
2018-10-01T09:35:11.632Z,5.60
2018-10-01T09:37:39.261Z,2.23
2018-10-01T09:40:06.982Z,13.23
2018-10-01T09:42:34.586Z,4.87
2018-10-01T09:45:02.388Z,4.10
2018-10-01T09:47:30.546Z,6.30
2018-10-01T09:49:58.245Z,4.90
2018-10-01T09:52:25.870Z,4.30
2018-10-01T09:54:53.483Z,7.13
2018-10-01T09:57:21.066Z,4.93
2018-10-01T09:59:48.632Z,7.50
2018-10-01T10:02:16.440Z,3.87
2018-10-01T10:04:44.605Z,5.20
2018-10-01T10:07:13.037Z,4.83
2018-10-01T10:09:40.794Z,6.73
2018-10-01T10:12:08.491Z,6.23
2018-10-01T10:14:36.133Z,4.57
2018-10-01T10:17:03.873Z,6.77
2018-10-01T10:19:31.576Z,4.17
2018-10-01T10:21:59.268Z,4.63
2018-10-01T10:24:26.874Z,4.08
2018-10-01T10:26:54.582Z,1.30
2018-10-01T10:29:22.219Z,3.65
2018-10-01T10:31:49.999Z,4.20
2018-10-01T10:34:17.685Z,4.07
2018-10-01T10:36:45.385Z,5.17
2018-10-01T10:39:13.285Z,3.23
2018-10-01T10:41:41.753Z,1.10
2018-10-01T10:44:09.357Z,3.53
2018-10-01T10:46:37.020Z,1.63
2018-10-01T10:49:05.062Z,2.40
2018-10-01T10:51:32.780Z,1.07
2018-10-01T10:54:01.096Z,2.17
2018-10-01T10:56:28.782Z,2.53
2018-10-01T10:58:56.331Z,3.03
2018-10-01T11:01:24.186Z,4.30
2018-10-01T11:03:51.786Z,3.53
2018-10-01T11:06:19.451Z,1.67
2018-10-01T11:08:47.551Z,6.07
2018-10-01T11:11:15.440Z,4.50
2018-10-01T11:13:44.401Z,4.80
2018-10-01T11:16:12.066Z,6.40
2018-10-01T11:18:40.588Z,4.77
2018-10-01T11:21:08.380Z,3.63
2018-10-01T11:23:36.016Z,4.33
2018-10-01T11:26:03.700Z,4.17
2018-10-01T11:28:31.349Z,2.13
2018-10-01T11:30:59.094Z,1.33
2018-10-01T11:33:26.695Z,11.63
2018-10-01T11:35:54.350Z,3.63
2018-10-01T11:38:21.965Z,6.03
2018-10-01T11:40:49.648Z,1.37
2018-10-01T11:43:17.246Z,3.70
2018-10-01T11:45:44.914Z,2.80
2018-10-01T11:48:12.487Z,2.23
2018-10-01T11:50:40.205Z,1.83
2018-10-01T11:53:07.801Z,3.13
2018-10-01T11:55:35.420Z,2.60
2018-10-01T11:58:03.278Z,2.27
2018-10-01T12:00:30.892Z,4.10
2018-10-01T12:02:58.533Z,3.63
2018-10-01T12:05:26.169Z,5.37
2018-10-01T12:07:53.754Z,7.07
2018-10-01T12:10:21.441Z,3.80
2018-10-01T12:12:48.953Z,4.03
2018-10-01T12:15:16.676Z,6.33
2018-10-01T12:17:44.159Z,7.23
2018-10-01T12:20:11.845Z,8.13
2018-10-01T12:22:39.485Z,4.27
2018-10-01T12:25:07.134Z,4.30
2018-10-01T12:27:34.913Z,6.20
2018-10-01T12:30:02.549Z,7.33
2018-10-01T12:32:30.170Z,10.77
2018-10-01T12:34:57.813Z,12.57
2018-10-01T12:37:25.470Z,8.87
2018-10-01T12:39:53.175Z,8.73
2018-10-01T12:42:20.802Z,12.00
2018-10-01T12:44:48.417Z,4.93
2018-10-01T12:47:16.036Z,6.47
2018-10-01T12:49:43.759Z,4.60
2018-10-01T12:52:11.422Z,7.63
2018-10-01T12:54:39.059Z,8.13
2018-10-01T12:57:07.174Z,7.00
2018-10-01T12:59:34.983Z,11.47
2018-10-01T13:02:02.479Z,9.83
2018-10-01T13:04:30.112Z,5.67
2018-10-01T13:06:57.737Z,7.27
2018-10-01T13:09:25.389Z,9.00
2018-10-01T13:11:53.028Z,7.77
2018-10-01T13:14:21.737Z,8.67
2018-10-01T13:16:49.370Z,9.53
2018-10-01T13:19:16.973Z,10.23
2018-10-01T13:21:44.634Z,10.27
2018-10-01T13:24:12.348Z,7.30
2018-10-01T13:26:39.958Z,8.43
2018-10-01T13:29:08.023Z,7.67
2018-10-01T13:31:35.639Z,16.53
2018-10-01T13:34:03.269Z,10.23
2018-10-01T13:36:30.937Z,8.57
2018-10-01T13:38:58.542Z,7.13
2018-10-01T13:41:26.185Z,6.93
2018-10-01T13:43:53.811Z,7.57
2018-10-01T13:46:21.428Z,15.23
2018-10-01T13:48:49.127Z,8.50
2018-10-01T13:51:16.705Z,9.80
2018-10-01T13:53:44.322Z,6.43
2018-10-01T13:56:11.986Z,4.97
2018-10-01T13:58:42.545Z,5.73
2018-10-01T14:01:10.253Z,5.50
2018-10-01T14:03:37.833Z,6.70
2018-10-01T14:06:05.477Z,8.47
2018-10-01T14:08:33.132Z,8.63
2018-10-01T14:11:00.741Z,7.87
2018-10-01T14:13:28.516Z,6.70
2018-10-01T14:15:55.986Z,5.80
2018-10-01T14:18:23.645Z,11.17
2018-10-01T14:20:51.290Z,9.53
2018-10-01T14:23:18.942Z,12.30
2018-10-01T14:25:46.720Z,5.97
2018-10-01T14:28:14.367Z,9.03
2018-10-01T14:30:42.010Z,4.80
2018-10-01T14:33:09.698Z,8.70
2018-10-01T14:35:37.263Z,7.73
2018-10-01T14:38:04.869Z,3.93
2018-10-01T14:40:32.469Z,10.77
2018-10-01T14:43:00.125Z,3.77
2018-10-01T14:45:27.705Z,3.37
2018-10-01T14:47:55.365Z,10.70
2018-10-01T14:50:22.959Z,3.07
2018-10-01T14:52:50.572Z,3.40
2018-10-01T14:55:18.214Z,4.87
2018-10-01T14:57:47.405Z,9.47
2018-10-01T15:00:15.075Z,4.10
2018-10-01T15:02:42.767Z,9.20
2018-10-01T15:05:10.397Z,5.70
2018-10-01T15:07:38.011Z,7.07
2018-10-01T15:10:05.721Z,4.67
2018-10-01T15:12:33.386Z,7.70
2018-10-01T15:15:00.990Z,4.97
2018-10-01T15:17:28.594Z,4.03
2018-10-01T15:19:56.288Z,4.70
2018-10-01T15:22:23.984Z,3.40
2018-10-01T15:24:51.545Z,3.47
2018-10-01T15:27:19.154Z,4.67
2018-10-01T15:29:46.795Z,5.43
2018-10-01T15:32:15.493Z,5.23
2018-10-01T15:34:43.402Z,5.07
2018-10-01T15:37:11.013Z,6.17
2018-10-01T15:39:38.847Z,6.87
2018-10-01T15:42:06.625Z,6.67
2018-10-01T15:44:34.377Z,6.97
2018-10-01T15:47:02.287Z,9.87
2018-10-01T15:49:29.980Z,10.60
2018-10-01T15:51:57.717Z,8.27
2018-10-01T15:54:26.432Z,4.70
2018-10-01T15:56:54.282Z,4.47
2018-10-01T15:59:21.930Z,7.40
2018-10-01T16:01:49.599Z,8.57
2018-10-01T16:04:17.283Z,6.67
2018-10-01T16:06:45.181Z,5.17
2018-10-01T16:09:12.832Z,6.23
2018-10-01T16:11:40.922Z,4.10
2018-10-01T16:14:10.816Z,4.20
2018-10-01T16:16:39.224Z,5.27
2018-10-01T16:19:07.828Z,3.00
2018-10-01T16:21:35.490Z,3.43
2018-10-01T16:24:03.173Z,3.20
2018-10-01T16:26:31.040Z,3.43
2018-10-01T16:28:59.275Z,7.00
2018-10-01T16:31:27.818Z,4.40
2018-10-01T16:33:56.217Z,5.30
2018-10-01T16:36:24.478Z,5.43
2018-10-01T16:38:52.084Z,2.90
2018-10-01T16:41:19.866Z,4.07
2018-10-01T16:43:48.264Z,6.40
2018-10-01T16:46:15.900Z,6.67
2018-10-01T16:48:43.870Z,5.43
2018-10-01T16:51:11.669Z,5.97
2018-10-01T16:53:39.397Z,5.40
2018-10-01T16:56:07.382Z,7.70
2018-10-01T16:58:35.352Z,7.60
2018-10-01T17:01:03.235Z,6.30
2018-10-01T17:03:31.413Z,7.67
2018-10-01T17:05:59.604Z,6.37
2018-10-01T17:08:28.676Z,5.97
2018-10-01T17:10:56.739Z,7.47
2018-10-01T17:13:25.695Z,7.00
2018-10-01T17:15:54.194Z,11.77
2018-10-01T17:18:22.582Z,10.13
2018-10-01T17:20:50.259Z,6.37
2018-10-01T17:23:17.929Z,6.97
2018-10-01T17:25:49.785Z,9.40
2018-10-01T17:28:19.433Z,7.60
2018-10-01T17:30:47.164Z,9.50
2018-10-01T17:33:14.938Z,8.53
2018-10-01T17:35:42.679Z,8.80
2018-10-01T17:38:10.470Z,6.00
2018-10-01T17:40:39.178Z,8.73
2018-10-01T17:43:07.281Z,9.90
2018-10-01T17:45:35.045Z,8.03
2018-10-01T17:48:02.673Z,5.90
2018-10-01T17:50:31.572Z,9.30
2018-10-01T17:52:59.204Z,8.27
2018-10-01T17:55:26.859Z,12.30
2018-10-01T17:57:54.746Z,10.13
2018-10-01T18:00:22.548Z,7.03
2018-10-01T18:02:50.319Z,6.73
2018-10-01T18:05:17.906Z,5.57
2018-10-01T18:07:45.700Z,7.23
2018-10-01T18:10:13.615Z,8.03
2018-10-01T18:12:41.288Z,8.23
2018-10-01T18:15:09.565Z,11.57
2018-10-01T18:17:45.026Z,5.43
2018-10-01T18:20:13.520Z,7.07
2018-10-01T18:22:41.167Z,7.70
2018-10-01T18:25:08.898Z,7.40
2018-10-01T18:27:36.575Z,8.43
2018-10-01T18:30:04.849Z,6.00
2018-10-01T18:32:32.677Z,9.77
2018-10-01T18:35:00.421Z,13.17
2018-10-01T18:37:27.997Z,7.17
2018-10-01T18:39:55.772Z,8.53
2018-10-01T18:42:23.503Z,8.30
2018-10-01T18:44:51.127Z,8.53
2018-10-01T18:47:18.785Z,5.90
2018-10-01T18:49:46.449Z,8.37
2018-10-01T18:52:14.116Z,6.57
2018-10-01T18:54:41.855Z,8.10
2018-10-01T18:57:09.519Z,3.80
2018-10-01T18:59:40.963Z,6.10
2018-10-01T19:02:08.739Z,8.70
2018-10-01T19:04:36.383Z,7.53
2018-10-01T19:07:04.039Z,4.33
2018-10-01T19:09:31.641Z,11.73
2018-10-01T19:11:59.417Z,9.30
2018-10-01T19:14:27.038Z,5.10
2018-10-01T19:16:54.700Z,11.93
2018-10-01T19:19:22.410Z,7.83
2018-10-01T19:21:50.107Z,5.93
2018-10-01T19:24:18.749Z,10.47
2018-10-01T19:26:46.594Z,10.60
2018-10-01T19:29:14.229Z,7.53
2018-10-01T19:31:41.955Z,10.90
2018-10-01T19:34:09.543Z,8.30
2018-10-01T19:36:37.238Z,8.80
2018-10-01T19:39:06.689Z,8.73
2018-10-01T19:41:34.501Z,8.00
2018-10-01T19:44:02.346Z,4.43
2018-10-01T19:46:31.001Z,9.67
2018-10-01T19:48:58.781Z,7.03
2018-10-01T19:51:27.016Z,4.37
2018-10-01T19:53:55.476Z,6.50
2018-10-01T19:56:23.168Z,12.70
2018-10-01T19:58:50.866Z,8.70
2018-10-01T20:01:18.443Z,6.93
2018-10-01T20:03:46.739Z,9.10
2018-10-01T20:06:14.432Z,5.23
2018-10-01T20:08:42.132Z,5.10
2018-10-01T20:11:09.787Z,13.60
2018-10-01T20:13:37.457Z,12.00
2018-10-01T20:16:05.215Z,11.03
2018-10-01T20:18:32.876Z,10.30
2018-10-01T20:21:00.628Z,8.67
2018-10-01T20:23:28.269Z,10.40
2018-10-01T20:25:55.980Z,12.63
2018-10-01T20:28:23.676Z,11.20
2018-10-01T20:30:51.234Z,14.47
2018-10-01T20:33:18.835Z,12.03
2018-10-01T20:35:46.547Z,16.43
2018-10-01T20:38:14.183Z,19.50
2018-10-01T20:40:41.808Z,15.97
2018-10-01T20:43:09.435Z,16.73
2018-10-01T20:45:37.081Z,28.83
2018-10-01T20:48:04.813Z,17.43
2018-10-01T20:50:32.490Z,20.63
2018-10-01T20:53:00.200Z,20.03
2018-10-01T20:55:27.789Z,14.90
2018-10-01T20:57:55.427Z,17.03
2018-10-01T21:00:23.069Z,22.00
2018-10-01T21:02:50.644Z,21.87
2018-10-01T21:05:18.260Z,14.33
2018-10-01T21:07:45.898Z,16.47
2018-10-01T21:10:13.486Z,18.63
2018-10-01T21:12:41.796Z,27.97
2018-10-01T21:15:09.526Z,19.20
2018-10-01T21:17:37.276Z,21.60
2018-10-01T21:20:12.394Z,15.47
2018-10-01T21:22:40.057Z,18.33
2018-10-01T21:25:07.751Z,19.07
2018-10-01T21:27:35.381Z,17.10
2018-10-01T21:30:03.289Z,17.83
2018-10-01T21:32:31.046Z,15.20
2018-10-01T21:34:58.667Z,18.10
2018-10-01T21:37:26.794Z,13.50
2018-10-01T21:40:05.797Z,17.13
2018-10-01T21:42:33.467Z,17.30
2018-10-01T21:45:01.713Z,15.93
2018-10-01T21:47:29.922Z,13.30
2018-10-01T21:49:57.537Z,12.27
2018-10-01T21:52:26.018Z,11.00
2018-10-01T21:54:54.806Z,10.37
2018-10-01T21:57:25.888Z,13.73
2018-10-01T21:59:53.617Z,12.20
2018-10-01T22:02:21.206Z,8.57
2018-10-01T22:04:48.911Z,12.87
2018-10-01T22:07:17.309Z,8.73
2018-10-01T22:09:55.013Z,10.23
2018-10-01T22:12:23.441Z,11.40
2018-10-01T22:14:51.058Z,9.50
2018-10-01T22:17:18.673Z,11.97
2018-10-01T22:19:46.320Z,11.87
2018-10-01T22:22:14.001Z,9.17
2018-10-01T22:24:41.645Z,12.97
2018-10-01T22:27:09.470Z,11.07
2018-10-01T22:29:37.076Z,12.53
2018-10-01T22:32:04.752Z,14.30
2018-10-01T22:34:32.352Z,10.93
2018-10-01T22:37:00.784Z,12.57
2018-10-01T22:39:28.469Z,8.13
2018-10-01T22:41:56.129Z,8.53
2018-10-01T22:44:23.738Z,16.57
2018-10-01T22:46:51.921Z,7.83
2018-10-01T22:49:20.669Z,10.57
2018-10-01T22:51:48.295Z,11.97
2018-10-01T22:54:15.925Z,11.20
2018-10-01T22:56:43.529Z,10.40
2018-10-01T22:59:11.256Z,12.80
2018-10-01T23:01:39.937Z,10.73
2018-10-01T23:04:07.506Z,7.40
2018-10-01T23:06:35.084Z,8.47
2018-10-01T23:09:02.880Z,7.23
2018-10-01T23:11:30.521Z,8.60
2018-10-01T23:13:58.117Z,10.23
2018-10-01T23:16:25.757Z,7.60
2018-10-01T23:18:53.409Z,11.17
2018-10-01T23:21:21.153Z,9.73
2018-10-01T23:23:48.861Z,7.33
2018-10-01T23:26:16.584Z,13.03
2018-10-01T23:28:44.277Z,7.53
2018-10-01T23:31:12.007Z,9.87
2018-10-01T23:33:39.596Z,9.30
2018-10-01T23:36:07.205Z,7.73
2018-10-01T23:38:34.950Z,7.70
2018-10-01T23:41:02.461Z,8.67
2018-10-01T23:43:30.209Z,8.37
2018-10-01T23:45:57.921Z,7.60
2018-10-01T23:48:25.534Z,12.33
2018-10-01T23:50:53.145Z,9.37
2018-10-01T23:53:20.872Z,7.43
2018-10-01T23:55:48.997Z,5.47
2018-10-01T23:58:16.720Z,10.60
